sensor_id;sensor_type;location;lat;lon;timestamp;temperature;humidity
27848;DHT22;15212;48.830;8.730;2023-03-23T00:01:37;12.40;99.90
27848;DHT22;15212;48.830;8.730;2023-03-23T00:04:05;12.40;99.90
27848;DHT22;15212;48.830;8.730;2023-03-23T00:06:34;12.30;99.90
27848;DHT22;15212;48.830;8.730;2023-03-23T00:09:03;12.40;99.90
27848;DHT22;15212;48.830;8.730;2023-03-23T00:11:32;12.30;99.90
27848;DHT22;15212;48.830;8.730;2023-03-23T00:14:01;12.30;99.90
27848;DHT22;15212;48.830;8.730;2023-03-23T00:16:32;12.30;99.90
27848;DHT22;15212;48.830;8.730;2023-03-23T00:19:05;12.30;99.90
27848;DHT22;15212;48.830;8.730;2023-03-23T00:21:41;12.30;99.90
27848;DHT22;15212;48.830;8.730;2023-03-23T00:24:12;12.40;99.90
27848;DHT22;15212;48.830;8.730;2023-03-23T00:26:46;12.40;99.90
27848;DHT22;15212;48.830;8.730;2023-03-23T00:29:19;12.40;99.90
27848;DHT22;15212;48.830;8.730;2023-03-23T00:31:50;12.40;99.90
27848;DHT22;15212;48.830;8.730;2023-03-23T00:34:21;12.40;99.90
27848;DHT22;15212;48.830;8.730;2023-03-23T00:36:52;12.40;99.90
27848;DHT22;15212;48.830;8.730;2023-03-23T00:39:26;12.40;99.90
27848;DHT22;15212;48.830;8.730;2023-03-23T00:41:55;12.40;99.90
27848;DHT22;15212;48.830;8.730;2023-03-23T00:44:29;12.40;99.90
27848;DHT22;15212;48.830;8.730;2023-03-23T00:46:58;12.40;99.90
27848;DHT22;15212;48.830;8.730;2023-03-23T00:49:27;12.40;99.90
27848;DHT22;15212;48.830;8.730;2023-03-23T00:51:57;12.40;99.90
27848;DHT22;15212;48.830;8.730;2023-03-23T00:54:26;12.30;99.90
27848;DHT22;15212;48.830;8.730;2023-03-23T00:56:55;12.30;99.90
27848;DHT22;15212;48.830;8.730;2023-03-23T00:59:23;12.30;99.90
27848;DHT22;15212;48.830;8.730;2023-03-23T01:01:52;12.30;99.90
27848;DHT22;15212;48.830;8.730;2023-03-23T01:04:20;12.30;99.90
27848;DHT22;15212;48.830;8.730;2023-03-23T01:06:50;12.30;99.90
27848;DHT22;15212;48.830;8.730;2023-03-23T01:09:19;12.20;99.90
27848;DHT22;15212;48.830;8.730;2023-03-23T01:11:51;12.20;99.90
27848;DHT22;15212;48.830;8.730;2023-03-23T01:14:22;12.20;99.90
27848;DHT22;15212;48.830;8.730;2023-03-23T01:16:51;12.20;99.90
27848;DHT22;15212;48.830;8.730;2023-03-23T01:19:20;12.10;99.90
27848;DHT22;15212;48.830;8.730;2023-03-23T01:21:48;12.00;99.90
27848;DHT22;15212;48.830;8.730;2023-03-23T01:24:17;12.00;99.90
27848;DHT22;15212;48.830;8.730;2023-03-23T01:26:45;11.90;99.90
27848;DHT22;15212;48.830;8.730;2023-03-23T01:29:14;11.90;99.90
27848;DHT22;15212;48.830;8.730;2023-03-23T01:31:42;11.80;99.90
27848;DHT22;15212;48.830;8.730;2023-03-23T01:34:11;11.80;99.90
27848;DHT22;15212;48.830;8.730;2023-03-23T01:36:39;11.80;99.90
27848;DHT22;15212;48.830;8.730;2023-03-23T01:39:07;11.70;99.90
27848;DHT22;15212;48.830;8.730;2023-03-23T01:41:36;11.70;99.90
27848;DHT22;15212;48.830;8.730;2023-03-23T01:45:13;11.60;99.90
27848;DHT22;15212;48.830;8.730;2023-03-23T01:46:57;11.50;99.90
27848;DHT22;15212;48.830;8.730;2023-03-23T01:49:28;11.50;99.90
27848;DHT22;15212;48.830;8.730;2023-03-23T01:52:07;11.50;99.90
27848;DHT22;15212;48.830;8.730;2023-03-23T01:54:45;11.50;99.90
27848;DHT22;15212;48.830;8.730;2023-03-23T01:57:16;11.50;99.90
27848;DHT22;15212;48.830;8.730;2023-03-23T01:59:49;11.50;99.90
27848;DHT22;15212;48.830;8.730;2023-03-23T02:02:20;11.50;99.90
27848;DHT22;15212;48.830;8.730;2023-03-23T02:04:50;11.50;99.90
27848;DHT22;15212;48.830;8.730;2023-03-23T02:07:20;11.40;99.90
27848;DHT22;15212;48.830;8.730;2023-03-23T02:09:52;11.40;99.90
27848;DHT22;15212;48.830;8.730;2023-03-23T02:12:20;11.30;99.90
27848;DHT22;15212;48.830;8.730;2023-03-23T02:14:49;11.30;99.90
27848;DHT22;15212;48.830;8.730;2023-03-23T02:17:33;11.20;99.90
27848;DHT22;15212;48.830;8.730;2023-03-23T02:20:17;11.20;99.90
27848;DHT22;15212;48.830;8.730;2023-03-23T02:23:09;11.20;99.90
27848;DHT22;15212;48.830;8.730;2023-03-23T02:25:47;11.10;99.90
27848;DHT22;15212;48.830;8.730;2023-03-23T02:28:41;11.10;99.90
27848;DHT22;15212;48.830;8.730;2023-03-23T02:34:18;11.00;99.90
27848;DHT22;15212;48.830;8.730;2023-03-23T02:37:02;11.00;99.90
27848;DHT22;15212;48.830;8.730;2023-03-23T02:39:42;11.00;99.90
27848;DHT22;15212;48.830;8.730;2023-03-23T02:42:12;10.90;99.90
27848;DHT22;15212;48.830;8.730;2023-03-23T02:44:46;11.00;99.90
27848;DHT22;15212;48.830;8.730;2023-03-23T02:47:19;10.90;99.90
27848;DHT22;15212;48.830;8.730;2023-03-23T02:49:52;11.00;99.90
27848;DHT22;15212;48.830;8.730;2023-03-23T02:52:24;11.00;99.90
27848;DHT22;15212;48.830;8.730;2023-03-23T02:54:58;11.00;99.90
27848;DHT22;15212;48.830;8.730;2023-03-23T02:57:28;11.00;99.90
27848;DHT22;15212;48.830;8.730;2023-03-23T02:59:57;11.10;99.90
27848;DHT22;15212;48.830;8.730;2023-03-23T03:02:28;11.10;99.90
27848;DHT22;15212;48.830;8.730;2023-03-23T03:08:18;11.10;99.90
27848;DHT22;15212;48.830;8.730;2023-03-23T03:11:16;11.10;99.90
27848;DHT22;15212;48.830;8.730;2023-03-23T03:16:38;11.10;99.90
27848;DHT22;15212;48.830;8.730;2023-03-23T03:19:26;11.10;99.90
27848;DHT22;15212;48.830;8.730;2023-03-23T03:22:00;11.10;99.90
27848;DHT22;15212;48.830;8.730;2023-03-23T03:24:29;11.10;99.90
27848;DHT22;15212;48.830;8.730;2023-03-23T03:27:00;11.10;99.90
27848;DHT22;15212;48.830;8.730;2023-03-23T03:29:32;11.20;99.90
27848;DHT22;15212;48.830;8.730;2023-03-23T03:32:04;11.20;99.90
27848;DHT22;15212;48.830;8.730;2023-03-23T03:34:34;11.20;99.90
27848;DHT22;15212;48.830;8.730;2023-03-23T03:37:04;11.20;99.90
27848;DHT22;15212;48.830;8.730;2023-03-23T03:39:35;11.20;99.90
27848;DHT22;15212;48.830;8.730;2023-03-23T03:42:05;11.20;99.90
27848;DHT22;15212;48.830;8.730;2023-03-23T03:44:34;11.20;99.90
27848;DHT22;15212;48.830;8.730;2023-03-23T03:47:02;11.30;99.90
27848;DHT22;15212;48.830;8.730;2023-03-23T03:49:31;11.30;99.90
27848;DHT22;15212;48.830;8.730;2023-03-23T03:51:59;11.30;99.90
27848;DHT22;15212;48.830;8.730;2023-03-23T03:54:28;11.30;99.90
27848;DHT22;15212;48.830;8.730;2023-03-23T03:56:57;11.40;99.90
27848;DHT22;15212;48.830;8.730;2023-03-23T03:59:26;11.40;99.90
27848;DHT22;15212;48.830;8.730;2023-03-23T04:01:54;11.50;99.90
27848;DHT22;15212;48.830;8.730;2023-03-23T04:04:22;11.50;99.90
27848;DHT22;15212;48.830;8.730;2023-03-23T04:06:51;11.50;99.90
27848;DHT22;15212;48.830;8.730;2023-03-23T04:09:19;11.50;99.90
27848;DHT22;15212;48.830;8.730;2023-03-23T04:11:47;11.50;99.90
27848;DHT22;15212;48.830;8.730;2023-03-23T04:14:16;11.50;99.90
27848;DHT22;15212;48.830;8.730;2023-03-23T04:16:44;11.50;99.90
27848;DHT22;15212;48.830;8.730;2023-03-23T04:19:12;11.50;99.90
27848;DHT22;15212;48.830;8.730;2023-03-23T04:21:41;11.50;99.90
27848;DHT22;15212;48.830;8.730;2023-03-23T04:24:09;11.50;99.90
27848;DHT22;15212;48.830;8.730;2023-03-23T04:26:38;11.40;99.90
27848;DHT22;15212;48.830;8.730;2023-03-23T04:29:06;11.40;99.90
27848;DHT22;15212;48.830;8.730;2023-03-23T04:31:35;11.40;99.90
27848;DHT22;15212;48.830;8.730;2023-03-23T04:34:04;11.40;99.90
27848;DHT22;15212;48.830;8.730;2023-03-23T04:36:32;11.40;99.90
27848;DHT22;15212;48.830;8.730;2023-03-23T04:39:00;11.30;99.90
27848;DHT22;15212;48.830;8.730;2023-03-23T04:41:29;11.30;99.90
27848;DHT22;15212;48.830;8.730;2023-03-23T04:43:58;11.40;99.90
27848;DHT22;15212;48.830;8.730;2023-03-23T04:46:28;11.40;99.90
27848;DHT22;15212;48.830;8.730;2023-03-23T04:48:57;11.40;99.90
27848;DHT22;15212;48.830;8.730;2023-03-23T04:51:32;11.40;99.90
27848;DHT22;15212;48.830;8.730;2023-03-23T04:53:58;11.40;99.90
27848;DHT22;15212;48.830;8.730;2023-03-23T04:56:27;11.40;99.90
27848;DHT22;15212;48.830;8.730;2023-03-23T04:58:55;11.40;99.90
27848;DHT22;15212;48.830;8.730;2023-03-23T05:01:23;11.40;99.90
27848;DHT22;15212;48.830;8.730;2023-03-23T05:03:54;11.40;99.90
27848;DHT22;15212;48.830;8.730;2023-03-23T05:06:22;11.40;99.90
27848;DHT22;15212;48.830;8.730;2023-03-23T05:08:50;11.50;99.90
27848;DHT22;15212;48.830;8.730;2023-03-23T05:11:19;11.50;99.90
27848;DHT22;15212;48.830;8.730;2023-03-23T05:13:47;11.40;99.90
27848;DHT22;15212;48.830;8.730;2023-03-23T05:16:16;11.40;99.90
27848;DHT22;15212;48.830;8.730;2023-03-23T05:18:44;11.40;99.90
27848;DHT22;15212;48.830;8.730;2023-03-23T05:21:14;11.40;99.90
27848;DHT22;15212;48.830;8.730;2023-03-23T05:23:42;11.30;99.90
27848;DHT22;15212;48.830;8.730;2023-03-23T05:26:11;11.30;99.90
27848;DHT22;15212;48.830;8.730;2023-03-23T05:28:40;11.30;99.90
27848;DHT22;15212;48.830;8.730;2023-03-23T05:31:08;11.20;99.90
27848;DHT22;15212;48.830;8.730;2023-03-23T05:33:37;11.20;99.90
27848;DHT22;15212;48.830;8.730;2023-03-23T05:36:05;11.20;99.90
27848;DHT22;15212;48.830;8.730;2023-03-23T05:38:35;11.10;99.90
27848;DHT22;15212;48.830;8.730;2023-03-23T05:41:05;11.10;99.90
27848;DHT22;15212;48.830;8.730;2023-03-23T05:43:34;11.10;99.90
27848;DHT22;15212;48.830;8.730;2023-03-23T05:46:02;11.00;99.90
27848;DHT22;15212;48.830;8.730;2023-03-23T05:48:31;11.00;99.90
27848;DHT22;15212;48.830;8.730;2023-03-23T05:50:59;11.10;99.90
27848;DHT22;15212;48.830;8.730;2023-03-23T05:53:28;11.00;99.90
27848;DHT22;15212;48.830;8.730;2023-03-23T05:56:00;11.00;99.90
27848;DHT22;15212;48.830;8.730;2023-03-23T05:58:30;11.00;99.90
27848;DHT22;15212;48.830;8.730;2023-03-23T06:00:59;11.10;99.90
27848;DHT22;15212;48.830;8.730;2023-03-23T06:03:27;11.10;99.90
27848;DHT22;15212;48.830;8.730;2023-03-23T06:05:55;11.30;99.90
27848;DHT22;15212;48.830;8.730;2023-03-23T06:08:25;11.50;99.90
27848;DHT22;15212;48.830;8.730;2023-03-23T06:10:53;11.60;99.90
27848;DHT22;15212;48.830;8.730;2023-03-23T06:13:22;11.70;99.90
27848;DHT22;15212;48.830;8.730;2023-03-23T06:15:54;11.80;99.90
27848;DHT22;15212;48.830;8.730;2023-03-23T06:18:25;11.80;99.90
27848;DHT22;15212;48.830;8.730;2023-03-23T06:20:55;11.80;99.90
27848;DHT22;15212;48.830;8.730;2023-03-23T06:23:23;11.80;99.90
27848;DHT22;15212;48.830;8.730;2023-03-23T06:25:53;11.80;99.90
27848;DHT22;15212;48.830;8.730;2023-03-23T06:28:27;11.70;99.90
27848;DHT22;15212;48.830;8.730;2023-03-23T06:31:05;11.70;99.90
27848;DHT22;15212;48.830;8.730;2023-03-23T06:33:33;11.60;99.90
27848;DHT22;15212;48.830;8.730;2023-03-23T06:36:02;11.60;99.90
27848;DHT22;15212;48.830;8.730;2023-03-23T06:38:31;11.60;99.90
27848;DHT22;15212;48.830;8.730;2023-03-23T06:40:59;11.60;99.90
27848;DHT22;15212;48.830;8.730;2023-03-23T06:43:28;11.70;99.90
27848;DHT22;15212;48.830;8.730;2023-03-23T06:45:58;11.70;99.90
27848;DHT22;15212;48.830;8.730;2023-03-23T06:48:28;11.70;99.90
27848;DHT22;15212;48.830;8.730;2023-03-23T06:50:56;11.70;99.90
27848;DHT22;15212;48.830;8.730;2023-03-23T06:53:25;11.70;99.90
27848;DHT22;15212;48.830;8.730;2023-03-23T06:55:53;11.70;99.90
27848;DHT22;15212;48.830;8.730;2023-03-23T06:58:21;11.70;99.90
27848;DHT22;15212;48.830;8.730;2023-03-23T07:00:55;11.70;99.90
27848;DHT22;15212;48.830;8.730;2023-03-23T07:03:24;11.70;99.90
27848;DHT22;15212;48.830;8.730;2023-03-23T07:05:54;11.70;99.90
27848;DHT22;15212;48.830;8.730;2023-03-23T07:08:23;11.70;99.90
27848;DHT22;15212;48.830;8.730;2023-03-23T07:10:52;11.70;99.90
27848;DHT22;15212;48.830;8.730;2023-03-23T07:13:21;11.70;99.90
27848;DHT22;15212;48.830;8.730;2023-03-23T07:15:50;11.60;99.90
27848;DHT22;15212;48.830;8.730;2023-03-23T07:18:18;11.60;99.90
27848;DHT22;15212;48.830;8.730;2023-03-23T07:20:52;11.60;99.90
27848;DHT22;15212;48.830;8.730;2023-03-23T07:23:21;11.70;99.90
27848;DHT22;15212;48.830;8.730;2023-03-23T07:25:49;11.70;99.90
27848;DHT22;15212;48.830;8.730;2023-03-23T07:28:18;11.70;99.90
27848;DHT22;15212;48.830;8.730;2023-03-23T07:30:46;11.70;99.90
27848;DHT22;15212;48.830;8.730;2023-03-23T07:33:15;11.70;99.90
27848;DHT22;15212;48.830;8.730;2023-03-23T07:35:43;11.70;99.90
27848;DHT22;15212;48.830;8.730;2023-03-23T07:38:12;11.70;99.90
27848;DHT22;15212;48.830;8.730;2023-03-23T07:40:40;11.70;99.90
27848;DHT22;15212;48.830;8.730;2023-03-23T07:43:10;11.80;99.90
27848;DHT22;15212;48.830;8.730;2023-03-23T07:45:38;11.90;99.90
27848;DHT22;15212;48.830;8.730;2023-03-23T07:48:07;12.00;99.90
27848;DHT22;15212;48.830;8.730;2023-03-23T07:50:36;11.90;99.90
27848;DHT22;15212;48.830;8.730;2023-03-23T07:53:04;11.90;99.90
27848;DHT22;15212;48.830;8.730;2023-03-23T07:55:32;12.00;99.90
27848;DHT22;15212;48.830;8.730;2023-03-23T07:58:01;11.90;99.90
27848;DHT22;15212;48.830;8.730;2023-03-23T08:00:29;11.80;99.90
27848;DHT22;15212;48.830;8.730;2023-03-23T08:02:59;11.90;99.90
27848;DHT22;15212;48.830;8.730;2023-03-23T08:05:28;11.90;99.90
27848;DHT22;15212;48.830;8.730;2023-03-23T08:07:57;11.90;99.90
27848;DHT22;15212;48.830;8.730;2023-03-23T08:10:26;12.00;99.90
27848;DHT22;15212;48.830;8.730;2023-03-23T08:12:56;12.00;99.90
27848;DHT22;15212;48.830;8.730;2023-03-23T08:15:25;12.00;99.90
27848;DHT22;15212;48.830;8.730;2023-03-23T08:17:55;12.00;99.90
27848;DHT22;15212;48.830;8.730;2023-03-23T08:20:24;12.00;99.90
27848;DHT22;15212;48.830;8.730;2023-03-23T08:22:54;11.90;99.90
27848;DHT22;15212;48.830;8.730;2023-03-23T08:25:24;11.90;99.90
27848;DHT22;15212;48.830;8.730;2023-03-23T08:27:54;11.80;99.90
27848;DHT22;15212;48.830;8.730;2023-03-23T08:30:22;11.70;99.90
27848;DHT22;15212;48.830;8.730;2023-03-23T08:32:52;11.70;99.90
27848;DHT22;15212;48.830;8.730;2023-03-23T08:35:21;11.70;99.90
27848;DHT22;15212;48.830;8.730;2023-03-23T08:37:50;11.70;99.90
27848;DHT22;15212;48.830;8.730;2023-03-23T08:40:22;11.60;99.90
27848;DHT22;15212;48.830;8.730;2023-03-23T08:42:52;11.70;99.90
27848;DHT22;15212;48.830;8.730;2023-03-23T08:45:23;11.60;99.90
27848;DHT22;15212;48.830;8.730;2023-03-23T08:47:53;11.70;99.90
27848;DHT22;15212;48.830;8.730;2023-03-23T08:50:24;11.60;99.90
27848;DHT22;15212;48.830;8.730;2023-03-23T08:52:54;11.70;99.90
27848;DHT22;15212;48.830;8.730;2023-03-23T08:55:23;11.70;99.90
27848;DHT22;15212;48.830;8.730;2023-03-23T08:57:53;11.70;99.90
27848;DHT22;15212;48.830;8.730;2023-03-23T09:00:22;11.80;99.90
27848;DHT22;15212;48.830;8.730;2023-03-23T09:02:53;11.90;99.90
27848;DHT22;15212;48.830;8.730;2023-03-23T09:05:25;12.00;99.90
27848;DHT22;15212;48.830;8.730;2023-03-23T09:07:56;12.10;99.90
27848;DHT22;15212;48.830;8.730;2023-03-23T09:10:27;12.20;99.90
27848;DHT22;15212;48.830;8.730;2023-03-23T09:12:56;12.20;99.90
27848;DHT22;15212;48.830;8.730;2023-03-23T09:15:25;12.30;99.90
27848;DHT22;15212;48.830;8.730;2023-03-23T09:17:54;12.30;99.90
27848;DHT22;15212;48.830;8.730;2023-03-23T09:20:26;12.30;99.90
27848;DHT22;15212;48.830;8.730;2023-03-23T09:22:56;12.30;99.90
27848;DHT22;15212;48.830;8.730;2023-03-23T09:25:26;12.20;99.90
27848;DHT22;15212;48.830;8.730;2023-03-23T09:27:57;12.10;99.90
27848;DHT22;15212;48.830;8.730;2023-03-23T09:30:29;12.10;99.90
27848;DHT22;15212;48.830;8.730;2023-03-23T09:33:00;12.10;99.90
27848;DHT22;15212;48.830;8.730;2023-03-23T09:35:30;12.30;99.90
27848;DHT22;15212;48.830;8.730;2023-03-23T09:38:01;12.40;99.90
27848;DHT22;15212;48.830;8.730;2023-03-23T09:40:48;12.50;99.90
27848;DHT22;15212;48.830;8.730;2023-03-23T09:43:43;12.50;99.90
27848;DHT22;15212;48.830;8.730;2023-03-23T09:46:35;12.40;99.90
27848;DHT22;15212;48.830;8.730;2023-03-23T09:49:23;12.40;99.90
27848;DHT22;15212;48.830;8.730;2023-03-23T09:52:08;12.30;99.90
27848;DHT22;15212;48.830;8.730;2023-03-23T10:00:37;12.50;99.90
27848;DHT22;15212;48.830;8.730;2023-03-23T10:03:50;12.50;99.90
27848;DHT22;15212;48.830;8.730;2023-03-23T10:05:55;12.60;99.90
27848;DHT22;15212;48.830;8.730;2023-03-23T10:08:29;12.60;99.90
27848;DHT22;15212;48.830;8.730;2023-03-23T10:11:20;12.70;99.90
27848;DHT22;15212;48.830;8.730;2023-03-23T10:14:09;12.70;99.90
27848;DHT22;15212;48.830;8.730;2023-03-23T10:16:55;12.90;99.90
27848;DHT22;15212;48.830;8.730;2023-03-23T10:22:10;13.10;99.90
27848;DHT22;15212;48.830;8.730;2023-03-23T10:24:48;13.10;99.90
27848;DHT22;15212;48.830;8.730;2023-03-23T10:27:41;13.10;99.90
27848;DHT22;15212;48.830;8.730;2023-03-23T10:33:25;13.20;99.90
27848;DHT22;15212;48.830;8.730;2023-03-23T10:36:03;13.30;99.90
27848;DHT22;15212;48.830;8.730;2023-03-23T10:38:44;13.20;99.90
27848;DHT22;15212;48.830;8.730;2023-03-23T10:41:18;13.20;99.90
27848;DHT22;15212;48.830;8.730;2023-03-23T10:43:46;13.20;99.90
27848;DHT22;15212;48.830;8.730;2023-03-23T10:49:37;13.30;99.90
27848;DHT22;15212;48.830;8.730;2023-03-23T10:52:13;13.30;99.90
27848;DHT22;15212;48.830;8.730;2023-03-23T10:57:40;13.40;99.90
27848;DHT22;15212;48.830;8.730;2023-03-23T11:00:19;13.40;99.90
27848;DHT22;15212;48.830;8.730;2023-03-23T11:03:01;13.40;99.90
27848;DHT22;15212;48.830;8.730;2023-03-23T11:05:40;13.30;99.90
27848;DHT22;15212;48.830;8.730;2023-03-23T11:08:16;13.30;99.90
27848;DHT22;15212;48.830;8.730;2023-03-23T11:11:14;13.30;99.90
27848;DHT22;15212;48.830;8.730;2023-03-23T11:13:48;13.30;99.90
27848;DHT22;15212;48.830;8.730;2023-03-23T11:16:34;13.40;99.90
27848;DHT22;15212;48.830;8.730;2023-03-23T11:19:00;13.40;99.90
27848;DHT22;15212;48.830;8.730;2023-03-23T11:21:47;13.60;99.90
27848;DHT22;15212;48.830;8.730;2023-03-23T11:24:18;13.80;99.90
27848;DHT22;15212;48.830;8.730;2023-03-23T11:26:48;14.00;99.90
27848;DHT22;15212;48.830;8.730;2023-03-23T11:29:22;14.00;99.90
27848;DHT22;15212;48.830;8.730;2023-03-23T11:32:04;14.10;99.90
27848;DHT22;15212;48.830;8.730;2023-03-23T11:34:41;14.20;99.90
27848;DHT22;15212;48.830;8.730;2023-03-23T11:37:19;14.30;99.90
27848;DHT22;15212;48.830;8.730;2023-03-23T11:40:01;14.20;99.90
27848;DHT22;15212;48.830;8.730;2023-03-23T11:42:44;14.20;99.90
27848;DHT22;15212;48.830;8.730;2023-03-23T11:45:35;14.10;99.90
27848;DHT22;15212;48.830;8.730;2023-03-23T11:48:16;14.10;99.90
27848;DHT22;15212;48.830;8.730;2023-03-23T11:51:16;14.00;99.90
27848;DHT22;15212;48.830;8.730;2023-03-23T11:53:58;14.00;99.90
27848;DHT22;15212;48.830;8.730;2023-03-23T11:56:35;13.90;99.90
27848;DHT22;15212;48.830;8.730;2023-03-23T11:59:13;13.80;99.90
27848;DHT22;15212;48.830;8.730;2023-03-23T12:08:02;13.80;99.90
27848;DHT22;15212;48.830;8.730;2023-03-23T12:13:25;13.90;99.90
27848;DHT22;15212;48.830;8.730;2023-03-23T12:16:13;14.00;99.90
27848;DHT22;15212;48.830;8.730;2023-03-23T12:19:16;14.10;99.90
27848;DHT22;15212;48.830;8.730;2023-03-23T12:25:30;14.20;99.90
27848;DHT22;15212;48.830;8.730;2023-03-23T12:40:30;14.50;99.90
27848;DHT22;15212;48.830;8.730;2023-03-23T12:43:28;14.40;99.90
27848;DHT22;15212;48.830;8.730;2023-03-23T12:46:09;14.30;99.90
27848;DHT22;15212;48.830;8.730;2023-03-23T12:54:16;14.30;99.90
27848;DHT22;15212;48.830;8.730;2023-03-23T12:59:52;14.40;99.90
27848;DHT22;15212;48.830;8.730;2023-03-23T13:02:29;14.50;99.90
27848;DHT22;15212;48.830;8.730;2023-03-23T13:05:24;14.60;99.90
27848;DHT22;15212;48.830;8.730;2023-03-23T13:08:01;14.60;99.90
27848;DHT22;15212;48.830;8.730;2023-03-23T13:10:38;14.80;99.90
27848;DHT22;15212;48.830;8.730;2023-03-23T13:13:22;15.00;99.90
27848;DHT22;15212;48.830;8.730;2023-03-23T13:16:03;15.10;99.90
27848;DHT22;15212;48.830;8.730;2023-03-23T13:21:27;15.10;99.90
27848;DHT22;15212;48.830;8.730;2023-03-23T13:24:06;15.10;99.90
27848;DHT22;15212;48.830;8.730;2023-03-23T13:26:41;15.10;99.90
27848;DHT22;15212;48.830;8.730;2023-03-23T13:29:15;15.00;99.90
27848;DHT22;15212;48.830;8.730;2023-03-23T13:31:45;15.00;99.90
27848;DHT22;15212;48.830;8.730;2023-03-23T13:34:19;14.90;99.90
27848;DHT22;15212;48.830;8.730;2023-03-23T13:44:56;14.70;99.90
27848;DHT22;15212;48.830;8.730;2023-03-23T13:47:35;14.60;99.90
27848;DHT22;15212;48.830;8.730;2023-03-23T13:50:43;14.50;99.90
27848;DHT22;15212;48.830;8.730;2023-03-23T13:52:53;14.40;99.90
27848;DHT22;15212;48.830;8.730;2023-03-23T14:00:48;14.30;99.90
27848;DHT22;15212;48.830;8.730;2023-03-23T14:03:27;14.20;99.90
27848;DHT22;15212;48.830;8.730;2023-03-23T14:06:12;14.20;99.90
27848;DHT22;15212;48.830;8.730;2023-03-23T14:08:47;14.20;99.90
27848;DHT22;15212;48.830;8.730;2023-03-23T14:14:04;14.30;99.90
27848;DHT22;15212;48.830;8.730;2023-03-23T14:16:44;14.40;99.90
27848;DHT22;15212;48.830;8.730;2023-03-23T14:19:27;14.50;99.90
27848;DHT22;15212;48.830;8.730;2023-03-23T14:21:58;14.60;99.90
27848;DHT22;15212;48.830;8.730;2023-03-23T14:24:31;14.70;99.90
27848;DHT22;15212;48.830;8.730;2023-03-23T14:29:37;14.90;99.90
27848;DHT22;15212;48.830;8.730;2023-03-23T14:32:07;14.90;99.90
27848;DHT22;15212;48.830;8.730;2023-03-23T14:34:41;14.90;99.90
27848;DHT22;15212;48.830;8.730;2023-03-23T14:37:13;14.90;99.90
27848;DHT22;15212;48.830;8.730;2023-03-23T14:39:44;15.00;99.90
27848;DHT22;15212;48.830;8.730;2023-03-23T14:42:17;15.00;99.90
27848;DHT22;15212;48.830;8.730;2023-03-23T14:44:49;15.00;99.90
27848;DHT22;15212;48.830;8.730;2023-03-23T14:47:29;15.00;99.90
27848;DHT22;15212;48.830;8.730;2023-03-23T14:50:05;15.00;99.90
27848;DHT22;15212;48.830;8.730;2023-03-23T14:52:38;15.00;99.90
27848;DHT22;15212;48.830;8.730;2023-03-23T14:55:19;14.90;99.90
27848;DHT22;15212;48.830;8.730;2023-03-23T14:57:45;14.90;99.90
27848;DHT22;15212;48.830;8.730;2023-03-23T15:00:22;14.90;99.90
27848;DHT22;15212;48.830;8.730;2023-03-23T15:02:54;14.80;99.90
27848;DHT22;15212;48.830;8.730;2023-03-23T15:08:00;14.70;99.90
27848;DHT22;15212;48.830;8.730;2023-03-23T15:10:31;14.70;99.90
27848;DHT22;15212;48.830;8.730;2023-03-23T15:12:59;14.70;99.90
27848;DHT22;15212;48.830;8.730;2023-03-23T15:15:35;14.60;99.90
27848;DHT22;15212;48.830;8.730;2023-03-23T15:18:02;14.60;99.90
27848;DHT22;15212;48.830;8.730;2023-03-23T15:20:49;14.50;99.90
27848;DHT22;15212;48.830;8.730;2023-03-23T15:23:26;14.50;99.90
27848;DHT22;15212;48.830;8.730;2023-03-23T15:25:56;14.50;99.90
27848;DHT22;15212;48.830;8.730;2023-03-23T15:28:31;14.50;99.90
27848;DHT22;15212;48.830;8.730;2023-03-23T15:31:02;14.60;99.90
27848;DHT22;15212;48.830;8.730;2023-03-23T15:33:36;14.60;99.90
27848;DHT22;15212;48.830;8.730;2023-03-23T15:36:18;14.60;99.90
27848;DHT22;15212;48.830;8.730;2023-03-23T15:38:46;14.70;99.90
27848;DHT22;15212;48.830;8.730;2023-03-23T15:41:26;14.70;99.90
27848;DHT22;15212;48.830;8.730;2023-03-23T15:43:58;14.70;99.90
27848;DHT22;15212;48.830;8.730;2023-03-23T15:46:28;14.70;99.90
27848;DHT22;15212;48.830;8.730;2023-03-23T15:49:07;14.70;99.90
27848;DHT22;15212;48.830;8.730;2023-03-23T15:51:40;14.70;99.90
27848;DHT22;15212;48.830;8.730;2023-03-23T15:54:12;14.70;99.90
27848;DHT22;15212;48.830;8.730;2023-03-23T15:56:41;14.60;99.90
27848;DHT22;15212;48.830;8.730;2023-03-23T15:59:10;14.60;99.90
27848;DHT22;15212;48.830;8.730;2023-03-23T16:01:40;14.60;99.90
27848;DHT22;15212;48.830;8.730;2023-03-23T16:04:14;14.50;99.90
27848;DHT22;15212;48.830;8.730;2023-03-23T16:06:45;14.50;99.90
27848;DHT22;15212;48.830;8.730;2023-03-23T16:09:15;14.50;99.90
27848;DHT22;15212;48.830;8.730;2023-03-23T16:11:46;14.40;99.90
27848;DHT22;15212;48.830;8.730;2023-03-23T16:14:14;14.40;99.90
27848;DHT22;15212;48.830;8.730;2023-03-23T16:16:45;14.40;99.90
27848;DHT22;15212;48.830;8.730;2023-03-23T16:19:15;14.30;99.90
27848;DHT22;15212;48.830;8.730;2023-03-23T16:21:45;14.30;99.90
27848;DHT22;15212;48.830;8.730;2023-03-23T16:24:14;14.30;99.90
27848;DHT22;15212;48.830;8.730;2023-03-23T16:26:42;14.20;99.90
27848;DHT22;15212;48.830;8.730;2023-03-23T16:29:12;14.20;99.90
27848;DHT22;15212;48.830;8.730;2023-03-23T16:31:42;14.20;99.90
27848;DHT22;15212;48.830;8.730;2023-03-23T16:34:10;14.10;99.90
27848;DHT22;15212;48.830;8.730;2023-03-23T16:36:38;14.10;99.90
27848;DHT22;15212;48.830;8.730;2023-03-23T16:39:08;14.00;99.90
27848;DHT22;15212;48.830;8.730;2023-03-23T16:41:38;14.00;99.90
27848;DHT22;15212;48.830;8.730;2023-03-23T16:44:06;13.90;99.90
27848;DHT22;15212;48.830;8.730;2023-03-23T16:46:35;13.90;99.90
27848;DHT22;15212;48.830;8.730;2023-03-23T16:49:03;13.90;99.90
27848;DHT22;15212;48.830;8.730;2023-03-23T16:51:32;13.80;99.90
27848;DHT22;15212;48.830;8.730;2023-03-23T16:54:00;13.80;99.90
27848;DHT22;15212;48.830;8.730;2023-03-23T16:56:29;13.80;99.90
27848;DHT22;15212;48.830;8.730;2023-03-23T16:58:57;13.80;99.90
27848;DHT22;15212;48.830;8.730;2023-03-23T17:01:26;13.80;99.90
27848;DHT22;15212;48.830;8.730;2023-03-23T17:03:54;13.80;99.90
27848;DHT22;15212;48.830;8.730;2023-03-23T17:06:23;13.90;99.90
27848;DHT22;15212;48.830;8.730;2023-03-23T17:08:51;13.90;99.90
27848;DHT22;15212;48.830;8.730;2023-03-23T17:11:20;13.90;99.90
27848;DHT22;15212;48.830;8.730;2023-03-23T17:13:51;13.90;99.90
27848;DHT22;15212;48.830;8.730;2023-03-23T17:16:19;13.90;99.90
27848;DHT22;15212;48.830;8.730;2023-03-23T17:18:48;13.80;99.90
27848;DHT22;15212;48.830;8.730;2023-03-23T17:21:16;13.80;99.90
27848;DHT22;15212;48.830;8.730;2023-03-23T17:23:46;13.80;99.90
27848;DHT22;15212;48.830;8.730;2023-03-23T17:26:14;13.80;99.90
27848;DHT22;15212;48.830;8.730;2023-03-23T17:28:43;13.80;99.90